ARBÚCIES (La Selva)





Hora UTC 06:10
Temperatura 22.7 ºC
Humedad 71.1 %
Presión 1014.0 hPa
Pluja 0.0 mm
Velocidad viento 0.2 km/h
Dirección viento W
Radiación solar 93.7 W/m²

Datos diarios 2024-07-21



Hora UTC (invierno +1h; verano +2h)
Temperatura (ºC) Humedad (%) Presión (hPa) Velocidad viento (km/h) Precipitación (mm) Radiación solar (W/m²)
Hora UTC Aire Humedad Presión Vel. Dir. Vel. Max Dir. Intent. máx 5 min. Rad. Sol.
00:05 21.3 69.5 1013.0 6.2 SSW 10.6 SSW 0.0 0.0
00:10 21.5 69.5 1013.0 4.0 SSW 8.8 SW 0.0 0.0
00:15 21.3 70.5 1013.0 2.3 SW 5.3 SW 0.0 0.0
00:20 21.2 70.9 1013.0 4.9 SW 7.8 SW 0.0 0.0
00:25 21.1 72.2 1013.0 3.5 SW 5.6 WSW 0.0 0.0
00:30 20.9 72.8 1013.0 4.2 SW 6.0 SW 0.0 0.0
00:35 20.8 73.3 1013.0 4.0 SW 7.1 SSW 0.0 0.0
00:40 20.9 73.3 1013.0 6.5 SSW 8.5 SSW 0.0 0.0
00:45 21.1 72.1 1013.0 6.4 SW 9.5 WSW 0.0 0.0
00:50 21.0 71.4 1013.0 7.4 SSW 10.6 SSW 0.0 0.0
00:55 21.1 71.6 1013.0 5.9 SSW 8.8 SW 0.0 0.0
01:00 21.0 71.9 1014.0 3.3 SW 8.8 SW 0.0 0.0
01:05 20.8 73.3 1013.0 4.4 SSW 7.4 SW 0.0 0.0
01:10 20.7 73.7 1013.0 0.3 SW 3.9 SW 0.0 0.0
01:15 20.5 74.4 1013.0 0.0 SW 0.4 SW 0.0 0.0
01:20 20.3 75.5 1013.0 1.7 SW 8.1 SW 0.0 0.0
01:25 20.1 76.0 1013.0 2.1 WSW 7.8 SW 0.0 0.0
01:30 20.0 76.2 1014.0 1.5 WSW 7.1 WSW 0.0 0.0
01:35 20.0 76.7 1013.0 0.0 WSW 0.4 N 0.0 0.0
01:40 20.0 77.0 1013.0 4.9 SW 8.8 SW 0.0 0.0
01:45 19.9 77.0 1013.0 5.1 WSW 7.8 SW 0.0 0.0
01:50 19.8 77.2 1013.0 6.4 SW 8.8 SW 0.0 0.0
01:55 19.8 77.8 1013.0 4.7 SW 8.8 SSW 0.0 0.0
02:00 19.9 77.6 1014.0 7.5 SSW 12.7 SSW 0.0 0.0
02:05 20.1 76.5 1013.0 6.7 SW 10.6 SW 0.0 0.0
02:10 20.0 76.9 1013.0 7.4 SSW 9.9 SSW 0.0 0.0
02:15 19.9 77.1 1013.0 5.6 SW 8.5 SSW 0.0 0.0
02:20 19.9 77.7 1013.0 8.4 SSW 12.3 SW 0.0 0.0
02:25 19.9 77.5 1013.0 5.7 SW 9.2 SW 0.0 0.0
02:30 19.8 78.1 1014.0 3.9 SW 8.1 SW 0.0 0.0
02:35 19.8 78.5 1014.0 5.3 SW 7.8 SSW 0.0 0.0
02:40 19.8 78.9 1014.0 4.5 SW 6.7 SSW 0.0 0.0
02:45 19.8 78.9 1013.0 4.8 SW 7.4 SW 0.0 0.0
02:50 19.8 78.7 1014.0 3.8 SW 7.1 SW 0.0 0.0
02:55 19.8 78.8 1014.0 5.2 SW 7.8 SSW 0.0 0.1
03:00 19.9 78.8 1014.0 6.5 SW 7.8 SW 0.0 0.6
03:05 20.2 79.1 1013.0 2.1 SW 8.1 SSW 0.0 1.2
03:10 20.4 78.2 1014.0 0.4 ENE 3.5 ENE 0.0 0.9
03:15 20.6 77.5 1014.0 0.0 SW 0.4 WSW 0.0 0.6
03:20 20.6 77.4 1014.0 0.0 SSW 0.4 SSE 0.0 0.5
03:25 20.6 77.0 1014.0 0.0 WSW 0.4 SW 0.0 0.1
03:30 20.7 77.6 1015.0 0.0 SW 0.4 WNW 0.0 0.6
03:35 20.9 77.4 1014.0 0.0 SW 0.4 SSW 0.0 0.4
03:40 20.9 77.4 1014.0 0.0 SW 0.4 SW 0.0 0.1
03:45 21.0 77.7 1014.0 0.0 SSW 0.4 SSW 0.0 0.2
03:50 21.1 78.2 1014.0 0.0 SW 0.4 SSW 0.0 0.4
03:55 21.1 78.1 1014.0 0.0 W 0.4 WNW 0.0 0.0
04:00 21.2 78.5 1015.0 0.0 W 0.4 W 0.0 0.2
04:05 21.3 78.8 1014.0 0.0 SW 0.4 W 0.0 0.5
04:10 21.4 78.8 1014.0 0.0 SW 0.4 SW 0.0 0.3
04:15 21.4 79.2 1014.0 0.0 SW 0.4 SW 0.0 0.1
04:20 21.6 79.8 1014.0 0.0 WSW 0.4 N 0.0 0.5
04:25 21.7 79.8 1014.0 0.0 SSW 0.4 W 0.0 0.4
04:30 21.8 79.7 1015.0 0.0 NE 0.4 NW 0.0 0.6
04:35 21.9 79.6 1014.0 0.3 NE 4.9 NE 0.0 1.0
04:40 22.1 79.7 1014.0 0.6 NNE 4.6 NNE 0.0 1.7
04:45 22.3 78.8 1014.0 0.7 N 5.3 NNE 0.0 1.3
04:50 22.4 78.1 1014.0 7.3 NE 20.5 NE 0.0 1.1
04:55 22.6 74.5 1014.0 10.5 NE 18.3 NE 0.0 1.9
05:00 22.6 73.1 1015.0 8.4 NE 15.9 NE 0.0 2.5
05:05 22.5 72.4 1014.0 7.3 NE 12.3 NE 0.0 3.1
05:10 22.5 72.2 1014.0 3.1 NE 10.2 NE 0.0 4.1
05:15 22.4 72.1 1014.0 0.4 E 5.6 NNE 0.0 4.4
05:20 22.4 71.7 1014.0 2.6 E 7.4 E 0.0 3.4
05:25 22.3 71.5 1014.0 2.2 E 5.6 E 0.0 2.9
05:30 22.3 71.1 1015.0 0.6 E 3.5 NE 0.0 4.9
05:35 22.3 71.1 1014.0 0.0 N 0.4 S 0.0 5.0
05:40 22.3 71.2 1015.0 0.0 ENE 0.4 NNW 0.0 11.2
05:45 22.3 71.0 1014.0 0.0 NNE 0.4 E 0.0 10.7
05:50 22.4 71.5 1014.0 0.0 NNW 0.4 NW 0.0 15.0
05:55 22.4 71.9 1014.0 0.5 SW 3.5 WSW 0.0 85.0
06:00 22.5 72.3 1015.0 0.6 SW 5.6 SW 0.0 104.5
06:05 22.6 71.4 1014.0 0.6 WSW 4.6 WSW 0.0 84.4
06:10 22.7 71.1 1014.0 0.2 W 5.3 WSW 0.0 93.7
Máxima 22.7 79.8 1015.0 10.5 NE 20.5 NE 0.0 104.5
Mínima 19.8 69.5 1013.0
Total 0.0